Terminal Aerodrome Forecast
Issued by NWS Wakefield, VA

Home | Current Version | Previous Version | Text Only | Print | Product List | Glossary On
Versions: 1 2 3 4 5 6 7 8 9 10 11 12 13 14
789
FTUS41 KAKQ 262327
TAFRIC
TAF
KRIC 262327Z 2700/2724 25008KT P6SM SCT080 SCT250
     FM270400 20004KT P6SM SCT200
     FM270800 31004KT P6SM SCT120
     FM271300 35004KT P6SM BKN090
     FM271800 29005KT P6SM BKN060
     FM272100 24006KT P6SM BKN150=

USA.gov is the U.S. government's official web portal to all federal, state and local government web resources and services.